createdAt,value
2019-05-06T00:00:29.874Z,982.47
2019-05-06T00:01:29.905Z,982.49
2019-05-06T00:02:29.846Z,982.45
2019-05-06T00:03:29.945Z,982.45
2019-05-06T00:04:29.850Z,982.52
2019-05-06T00:05:29.886Z,982.46
2019-05-06T00:06:29.801Z,982.47
2019-05-06T00:07:29.817Z,982.44
2019-05-06T00:08:29.789Z,982.46
2019-05-06T00:09:29.779Z,982.43
2019-05-06T00:10:29.749Z,982.44
2019-05-06T00:11:29.791Z,982.49
2019-05-06T00:12:29.740Z,982.48
2019-05-06T00:13:29.821Z,982.49
2019-05-06T00:14:29.721Z,982.46
2019-05-06T00:15:29.692Z,982.42
2019-05-06T00:16:30.763Z,982.46
2019-05-06T00:17:29.682Z,982.43
2019-05-06T00:18:29.763Z,982.42
2019-05-06T00:19:29.663Z,982.46
2019-05-06T00:20:29.645Z,982.44
2019-05-06T00:21:29.635Z,982.44
2019-05-06T00:22:29.637Z,982.46
2019-05-06T00:23:29.605Z,982.46
2019-05-06T00:24:29.727Z,982.52
2019-05-06T00:25:29.586Z,982.44
2019-05-06T00:26:29.617Z,982.44
2019-05-06T00:27:29.566Z,982.45
2019-05-06T00:28:29.657Z,982.49
2019-05-06T00:29:29.588Z,982.46
2019-05-06T00:30:29.588Z,982.50
2019-05-06T00:31:29.548Z,982.51
2019-05-06T00:32:29.509Z,982.51
2019-05-06T00:33:29.600Z,982.51
2019-05-06T00:34:29.479Z,982.52
2019-05-06T00:35:29.570Z,982.53
2019-05-06T00:36:29.450Z,982.55
2019-05-06T00:37:29.461Z,982.56
2019-05-06T00:38:29.442Z,982.57
2019-05-06T00:39:29.502Z,982.56
2019-05-06T00:40:29.423Z,982.58
2019-05-06T00:41:29.444Z,982.56
2019-05-06T00:42:29.394Z,982.56
2019-05-06T00:43:29.474Z,982.59
2019-05-06T00:44:29.364Z,982.55
2019-05-06T00:45:29.465Z,982.57
2019-05-06T00:46:29.345Z,982.55
2019-05-06T00:47:29.326Z,982.56
2019-05-06T00:48:29.315Z,982.57
2019-05-06T00:49:29.386Z,982.60
2019-05-06T00:50:29.318Z,982.62
2019-05-06T00:51:29.317Z,982.56
2019-05-06T00:52:29.267Z,982.58
2019-05-06T00:53:29.268Z,982.56
2019-05-06T00:54:30.348Z,982.60
2019-05-06T00:55:29.259Z,982.61
2019-05-06T00:56:29.259Z,982.60
2019-05-06T00:57:29.220Z,982.63
2019-05-06T00:58:29.210Z,982.59
2019-05-06T00:59:29.190Z,982.61
2019-05-06T01:00:29.272Z,982.61
2019-05-06T01:01:29.935Z,982.65
2019-05-06T01:02:29.272Z,982.62
2019-05-06T01:03:29.154Z,982.58
2019-05-06T01:04:29.132Z,982.61
2019-05-06T01:05:29.213Z,982.65
2019-05-06T01:06:29.114Z,982.65
2019-05-06T01:07:29.205Z,982.65
2019-05-06T01:08:29.085Z,982.64
2019-05-06T01:09:29.086Z,982.66
2019-05-06T01:10:29.085Z,982.65
2019-05-06T01:11:29.076Z,982.64
2019-05-06T01:12:29.037Z,982.67
2019-05-06T01:13:29.116Z,982.64
2019-05-06T01:14:29.034Z,982.66
2019-05-06T01:15:29.018Z,982.67
2019-05-06T01:16:29.018Z,982.64
2019-05-06T01:17:28.978Z,982.63
2019-05-06T01:18:29.059Z,982.64
2019-05-06T01:19:28.971Z,982.71
2019-05-06T01:20:28.959Z,982.72
2019-05-06T01:21:28.931Z,982.69
2019-05-06T01:22:29.031Z,982.70
2019-05-06T01:23:28.922Z,982.70
2019-05-06T01:24:28.968Z,982.68
2019-05-06T01:25:28.922Z,982.71
2019-05-06T01:26:28.902Z,982.71
2019-05-06T01:27:28.875Z,982.72
2019-05-06T01:28:28.934Z,982.72
2019-05-06T01:29:28.846Z,982.71
2019-05-06T01:30:28.875Z,982.75
2019-05-06T01:31:39.808Z,982.76
2019-05-06T01:32:29.815Z,982.77
2019-05-06T01:33:28.875Z,982.73
2019-05-06T01:34:28.797Z,982.76
2019-05-06T01:35:28.818Z,982.73
2019-05-06T01:36:28.777Z,982.76
2019-05-06T01:37:28.857Z,982.79
2019-05-06T01:38:28.739Z,982.78
2019-05-06T01:39:28.788Z,982.81
2019-05-06T01:40:28.720Z,982.81
2019-05-06T01:41:29.780Z,982.78
2019-05-06T01:42:28.690Z,982.78
2019-05-06T01:43:28.762Z,982.74
2019-05-06T01:44:28.670Z,982.76
2019-05-06T01:45:28.693Z,982.74
2019-05-06T01:46:28.668Z,982.74
2019-05-06T01:47:28.641Z,982.77
2019-05-06T01:48:28.622Z,982.78
2019-05-06T01:49:28.663Z,982.77
2019-05-06T01:50:28.610Z,982.78
2019-05-06T01:51:28.644Z,982.80
2019-05-06T01:52:28.583Z,982.81
2019-05-06T01:53:28.565Z,982.83
2019-05-06T01:54:28.604Z,982.83
2019-05-06T01:55:28.556Z,982.83
2019-05-06T01:56:28.585Z,982.83
2019-05-06T01:57:28.516Z,982.81
2019-05-06T01:58:28.506Z,982.80
2019-05-06T01:59:28.507Z,982.85
2019-05-06T02:00:28.518Z,982.84
2019-05-06T02:01:28.487Z,982.87
2019-05-06T02:02:28.549Z,982.95
2019-05-06T02:03:28.458Z,982.87
2019-05-06T02:04:28.489Z,982.90
2019-05-06T02:05:28.430Z,982.88
2019-05-06T02:06:28.461Z,982.89
2019-05-06T02:07:28.403Z,982.94
2019-05-06T02:08:28.461Z,982.89
2019-05-06T02:09:28.382Z,982.95
2019-05-06T02:10:28.491Z,982.92
2019-05-06T02:11:28.375Z,982.91
2019-05-06T02:12:28.433Z,982.93
2019-05-06T02:13:28.334Z,982.90
2019-05-06T02:14:28.323Z,982.93
2019-05-06T02:15:28.314Z,982.93
2019-05-06T02:16:28.344Z,982.94
2019-05-06T02:17:28.285Z,982.90
2019-05-06T02:18:28.335Z,982.95
2019-05-06T02:19:28.267Z,982.91
2019-05-06T02:20:28.266Z,982.89
2019-05-06T02:21:28.287Z,982.91
2019-05-06T02:22:28.227Z,982.95
2019-05-06T02:23:28.267Z,982.92
2019-05-06T02:24:28.221Z,982.86
2019-05-06T02:25:28.198Z,982.86
2019-05-06T02:26:28.229Z,982.87
2019-05-06T02:27:28.240Z,982.85
2019-05-06T02:28:28.170Z,982.89
2019-05-06T02:29:28.180Z,982.92
2019-05-06T02:30:28.142Z,982.89
2019-05-06T02:31:28.131Z,982.93
2019-05-06T02:32:31.541Z,982.95
2019-05-06T02:33:28.115Z,982.91
2019-05-06T02:34:28.134Z,982.92
2019-05-06T02:35:28.083Z,982.99
2019-05-06T02:36:28.083Z,982.99
2019-05-06T02:37:28.095Z,982.97
2019-05-06T02:38:35.568Z,982.97
2019-05-06T02:39:29.038Z,982.97
2019-05-06T02:40:32.970Z,982.96
2019-05-06T02:41:28.031Z,982.98
2019-05-06T02:42:28.104Z,982.92
2019-05-06T02:43:27.987Z,982.96
2019-05-06T02:44:27.996Z,982.91
2019-05-06T02:45:27.978Z,982.96
2019-05-06T02:46:28.030Z,982.96
2019-05-06T02:47:28.049Z,982.98
2019-05-06T02:48:27.928Z,983.00
2019-05-06T02:49:27.940Z,982.94
2019-05-06T02:50:27.930Z,982.94
2019-05-06T02:51:27.971Z,982.92
2019-05-06T02:52:27.900Z,982.97
2019-05-06T02:53:27.911Z,982.91
2019-05-06T02:54:27.860Z,982.95
2019-05-06T02:55:29.166Z,982.95
2019-05-06T02:56:27.841Z,982.96
2019-05-06T02:57:27.931Z,982.96
2019-05-06T02:58:27.823Z,982.91
2019-05-06T02:59:28.845Z,982.95
2019-05-06T03:00:27.794Z,982.94
2019-05-06T03:01:27.858Z,982.94
2019-05-06T03:02:39.857Z,982.92
2019-05-06T03:03:28.754Z,982.93
2019-05-06T03:04:27.857Z,982.93
2019-05-06T03:05:27.745Z,982.94
2019-05-06T03:06:27.797Z,982.96
2019-05-06T03:07:27.738Z,982.92
2019-05-06T03:08:27.726Z,982.93
2019-05-06T03:09:27.699Z,982.98
2019-05-06T03:10:27.769Z,982.95
2019-05-06T03:11:27.670Z,982.93
2019-05-06T03:12:27.749Z,982.98
2019-05-06T03:13:27.650Z,982.97
2019-05-06T03:14:27.645Z,982.94
2019-05-06T03:15:27.720Z,983.00
2019-05-06T03:16:27.610Z,983.01
2019-05-06T03:17:27.680Z,983.01
2019-05-06T03:18:27.607Z,982.97
2019-05-06T03:19:27.571Z,982.99
2019-05-06T03:20:27.563Z,983.02
2019-05-06T03:21:27.614Z,982.97
2019-05-06T03:22:27.948Z,983.00
2019-05-06T03:23:27.644Z,983.03
2019-05-06T03:24:27.513Z,983.03
2019-05-06T03:25:27.504Z,982.99
2019-05-06T03:26:27.557Z,983.01
2019-05-06T03:27:27.506Z,983.01
2019-05-06T03:28:27.596Z,983.01
2019-05-06T03:29:27.461Z,983.03
2019-05-06T03:30:27.457Z,983.03
2019-05-06T03:31:27.440Z,983.02
2019-05-06T03:32:30.612Z,983.02
2019-05-06T03:33:45.785Z,983.04
2019-05-06T03:34:52.267Z,983.11
2019-05-06T03:35:48.423Z,983.07
2019-05-06T03:36:34.869Z,983.09
2019-05-06T03:37:28.371Z,983.06
2019-05-06T03:38:27.420Z,983.08
2019-05-06T03:39:27.361Z,983.08
2019-05-06T03:40:27.400Z,983.10
2019-05-06T03:41:27.375Z,983.11
2019-05-06T03:42:27.322Z,983.08
2019-05-06T03:43:27.352Z,983.12
2019-05-06T03:44:27.293Z,983.15
2019-05-06T03:45:27.347Z,983.08
2019-05-06T03:46:27.263Z,983.11
2019-05-06T03:47:27.266Z,983.07
2019-05-06T03:48:27.295Z,983.08
2019-05-06T03:49:27.233Z,983.09
2019-05-06T03:50:27.288Z,983.08
2019-05-06T03:51:27.216Z,983.07
2019-05-06T03:52:27.207Z,983.10
2019-05-06T03:53:27.206Z,983.14
2019-05-06T03:54:27.261Z,983.10
2019-05-06T03:55:27.175Z,983.12
2019-05-06T03:56:27.188Z,983.12
2019-05-06T03:57:27.139Z,983.12
2019-05-06T03:58:27.170Z,983.10
2019-05-06T03:59:27.128Z,983.12
2019-05-06T04:00:27.158Z,983.14
2019-05-06T04:01:27.100Z,983.16
2019-05-06T04:02:27.102Z,983.13
2019-05-06T04:03:42.470Z,983.16
2019-05-06T04:04:28.171Z,983.08
2019-05-06T04:05:27.050Z,983.11
2019-05-06T04:06:27.079Z,983.09
2019-05-06T04:07:27.022Z,983.12
2019-05-06T04:08:27.043Z,983.15
2019-05-06T04:09:27.007Z,983.14
2019-05-06T04:10:27.048Z,983.16
2019-05-06T04:11:26.988Z,983.14
2019-05-06T04:12:27.089Z,983.11
2019-05-06T04:13:26.976Z,983.08
2019-05-06T04:14:26.948Z,983.15
2019-05-06T04:15:27.041Z,983.16
2019-05-06T04:16:26.937Z,983.13
2019-05-06T04:17:27.019Z,983.16
2019-05-06T04:18:26.936Z,983.17
2019-05-06T04:19:26.890Z,983.12
2019-05-06T04:20:26.927Z,983.18
2019-05-06T04:21:26.887Z,983.17
2019-05-06T04:22:26.961Z,983.17
2019-05-06T04:23:26.840Z,983.21
2019-05-06T04:24:26.950Z,983.17
2019-05-06T04:25:26.832Z,983.15
2019-05-06T04:26:26.833Z,983.20
2019-05-06T04:27:26.802Z,983.14
2019-05-06T04:28:26.871Z,983.22
2019-05-06T04:29:26.802Z,983.21
2019-05-06T04:30:26.765Z,983.21
2019-05-06T04:31:26.757Z,983.22
2019-05-06T04:32:26.842Z,983.22
2019-05-06T04:33:26.743Z,983.24
2019-05-06T04:34:26.814Z,983.30
2019-05-06T04:35:26.704Z,983.28
2019-05-06T04:36:26.821Z,983.30
2019-05-06T04:37:26.694Z,983.27
2019-05-06T04:38:26.746Z,983.33
2019-05-06T04:39:26.676Z,983.31
2019-05-06T04:40:26.687Z,983.33
2019-05-06T04:41:27.025Z,983.33
2019-05-06T04:42:27.163Z,983.33
2019-05-06T04:43:27.262Z,983.33
2019-05-06T04:44:26.700Z,983.34
2019-05-06T04:45:26.599Z,983.39
2019-05-06T04:46:26.580Z,983.38
2019-05-06T04:47:26.571Z,983.38
2019-05-06T04:48:26.633Z,983.39
2019-05-06T04:49:26.570Z,983.39
2019-05-06T04:50:26.561Z,983.42
2019-05-06T04:51:26.529Z,983.42
2019-05-06T04:52:26.601Z,983.44
2019-05-06T04:53:27.064Z,983.44
2019-05-06T04:54:26.824Z,983.40
2019-05-06T04:55:26.482Z,983.44
2019-05-06T04:56:26.574Z,983.46
2019-05-06T04:57:26.467Z,983.43
2019-05-06T04:58:26.507Z,983.42
2019-05-06T04:59:26.453Z,983.43
2019-05-06T05:00:26.544Z,983.43
2019-05-06T05:01:26.415Z,983.43
2019-05-06T05:02:26.414Z,983.44
2019-05-06T05:03:26.391Z,983.45
2019-05-06T05:04:32.172Z,983.46
2019-05-06T05:05:27.377Z,983.45
2019-05-06T05:06:26.769Z,983.43
2019-05-06T05:07:26.344Z,983.41
2019-05-06T05:08:26.327Z,983.42
2019-05-06T05:09:26.403Z,983.43
2019-05-06T05:10:26.323Z,983.41
2019-05-06T05:11:27.412Z,983.43
2019-05-06T05:12:26.281Z,983.43
2019-05-06T05:13:26.331Z,983.49
2019-05-06T05:14:26.347Z,983.45
2019-05-06T05:15:26.360Z,983.47
2019-05-06T05:16:26.242Z,983.45
2019-05-06T05:17:27.321Z,983.46
2019-05-06T05:18:26.228Z,983.43
2019-05-06T05:19:26.223Z,983.48
2019-05-06T05:20:36.983Z,983.49
2019-05-06T05:21:27.184Z,983.49
2019-05-06T05:22:26.244Z,983.48
2019-05-06T05:23:26.154Z,983.51
2019-05-06T05:24:26.164Z,983.51
2019-05-06T05:25:26.136Z,983.52
2019-05-06T05:26:26.215Z,983.52
2019-05-06T05:27:26.125Z,983.54
2019-05-06T05:28:26.148Z,983.55
2019-05-06T05:29:26.159Z,983.54
2019-05-06T05:30:26.086Z,983.57
2019-05-06T05:31:27.177Z,983.53
2019-05-06T05:32:26.988Z,983.55
2019-05-06T05:33:26.080Z,983.58
2019-05-06T05:34:37.112Z,983.59
2019-05-06T05:35:27.049Z,983.59
2019-05-06T05:36:26.089Z,983.51
2019-05-06T05:37:26.000Z,983.57
2019-05-06T05:38:26.020Z,983.58
2019-05-06T05:39:25.983Z,983.53
2019-05-06T05:40:25.982Z,983.56
2019-05-06T05:41:25.952Z,983.67
2019-05-06T05:42:25.996Z,983.57
2019-05-06T05:43:25.943Z,983.54
2019-05-06T05:44:26.042Z,983.54
2019-05-06T05:45:25.923Z,983.59
2019-05-06T05:46:25.963Z,983.56
2019-05-06T05:47:25.899Z,983.54
2019-05-06T05:48:25.894Z,983.56
2019-05-06T05:49:25.865Z,983.56
2019-05-06T05:50:25.886Z,983.58
2019-05-06T05:51:25.846Z,983.62
2019-05-06T05:52:26.896Z,983.58
2019-05-06T05:53:25.816Z,983.62
2019-05-06T05:54:25.919Z,983.62
2019-05-06T05:55:25.818Z,983.63
2019-05-06T05:56:25.833Z,983.65
2019-05-06T05:57:25.768Z,983.63
2019-05-06T05:58:26.809Z,983.60
2019-05-06T05:59:25.779Z,983.65
2019-05-06T06:00:25.861Z,983.69
2019-05-06T06:01:25.780Z,983.70
2019-05-06T06:02:25.711Z,983.68
2019-05-06T06:03:25.721Z,983.71
2019-05-06T06:04:25.693Z,983.71
2019-05-06T06:05:25.805Z,983.75
2019-05-06T06:06:25.662Z,983.74
2019-05-06T06:07:25.663Z,983.70
2019-05-06T06:08:25.665Z,983.73
2019-05-06T06:09:25.638Z,983.72
2019-05-06T06:10:25.745Z,983.74
2019-05-06T06:11:25.615Z,983.77
2019-05-06T06:12:25.615Z,983.74
2019-05-06T06:13:25.595Z,983.75
2019-05-06T06:14:25.576Z,983.71
2019-05-06T06:15:25.688Z,983.73
2019-05-06T06:16:25.557Z,983.66
2019-05-06T06:17:25.538Z,983.70
2019-05-06T06:18:25.648Z,983.74
2019-05-06T06:19:25.529Z,983.73
2019-05-06T06:20:25.630Z,983.72
2019-05-06T06:21:28.195Z,983.68
2019-05-06T06:22:25.479Z,983.67
2019-05-06T06:23:25.481Z,983.73
2019-05-06T06:24:25.552Z,983.68
2019-05-06T06:25:25.750Z,983.71
2019-05-06T06:26:25.482Z,983.64
2019-05-06T06:27:25.422Z,983.67
2019-05-06T06:28:25.522Z,983.68
2019-05-06T06:29:25.403Z,983.64
2019-05-06T06:30:25.453Z,983.65
2019-05-06T06:31:25.394Z,983.66
2019-05-06T06:32:26.424Z,983.67
2019-05-06T06:33:25.356Z,983.62
2019-05-06T06:34:25.425Z,983.64
2019-05-06T06:35:25.344Z,983.68
2019-05-06T06:36:25.418Z,983.66
2019-05-06T06:37:25.317Z,983.66
2019-05-06T06:38:25.297Z,983.66
2019-05-06T06:39:25.287Z,983.61
2019-05-06T06:40:25.338Z,983.59
2019-05-06T06:41:25.289Z,983.56
2019-05-06T06:42:25.269Z,983.57
2019-05-06T06:43:25.239Z,983.58
2019-05-06T06:44:25.311Z,983.53
2019-05-06T06:45:25.241Z,983.53
2019-05-06T06:46:25.292Z,983.49
2019-05-06T06:47:25.191Z,983.53
2019-05-06T06:48:27.874Z,983.49
2019-05-06T06:49:25.194Z,983.55
2019-05-06T06:50:25.213Z,983.49
2019-05-06T06:51:25.163Z,983.52
2019-05-06T06:52:25.155Z,983.49
2019-05-06T06:53:25.134Z,983.44
2019-05-06T06:54:25.115Z,983.48
2019-05-06T06:55:25.157Z,983.44
2019-05-06T06:56:25.116Z,983.44
2019-05-06T06:57:25.098Z,983.49
2019-05-06T06:58:25.068Z,983.46
2019-05-06T06:59:25.058Z,983.42
2019-05-06T07:00:25.067Z,983.47
2019-05-06T07:01:25.120Z,983.43
2019-05-06T07:02:25.021Z,983.49
2019-05-06T07:03:25.110Z,983.47
2019-05-06T07:04:25.081Z,983.44
2019-05-06T07:05:28.334Z,983.42
2019-05-06T07:06:26.071Z,983.43
2019-05-06T07:07:39.962Z,983.41
2019-05-06T07:08:34.911Z,983.46
2019-05-06T07:09:25.943Z,983.44
2019-05-06T07:10:24.983Z,983.43
2019-05-06T07:11:24.915Z,983.40
2019-05-06T07:12:26.002Z,983.47
2019-05-06T07:13:24.905Z,983.46
2019-05-06T07:14:25.975Z,983.40
2019-05-06T07:15:24.876Z,983.42
2019-05-06T07:16:24.887Z,983.35
2019-05-06T07:17:24.867Z,983.35
2019-05-06T07:18:24.927Z,983.39
2019-05-06T07:19:24.828Z,983.30
2019-05-06T07:20:24.829Z,983.32
2019-05-06T07:21:24.819Z,983.32
2019-05-06T07:22:24.800Z,983.29
2019-05-06T07:23:24.863Z,983.27
2019-05-06T07:24:24.781Z,983.28
2019-05-06T07:25:24.780Z,983.25
2019-05-06T07:26:24.742Z,983.29
2019-05-06T07:27:24.773Z,983.27
2019-05-06T07:28:24.732Z,983.25
2019-05-06T07:29:26.759Z,983.25
2019-05-06T07:30:24.704Z,983.22
2019-05-06T07:31:26.732Z,983.26
2019-05-06T07:32:24.726Z,983.28
2019-05-06T07:33:24.657Z,983.28
2019-05-06T07:34:24.707Z,983.28
2019-05-06T07:35:37.580Z,983.25
2019-05-06T07:36:25.628Z,983.28
2019-05-06T07:37:24.658Z,983.28
2019-05-06T07:38:24.609Z,983.28
2019-05-06T07:39:24.659Z,983.30
2019-05-06T07:40:24.599Z,983.32
2019-05-06T07:41:25.612Z,983.30
2019-05-06T07:42:24.591Z,983.33
2019-05-06T07:43:25.654Z,983.29
2019-05-06T07:44:24.556Z,983.26
2019-05-06T07:45:24.563Z,983.34
2019-05-06T07:46:24.518Z,983.31
2019-05-06T07:47:24.526Z,983.30
2019-05-06T07:48:24.574Z,983.33
2019-05-06T07:49:24.487Z,983.32
2019-05-06T07:50:24.510Z,983.35
2019-05-06T07:51:24.497Z,983.34
2019-05-06T07:52:24.596Z,983.37
2019-05-06T07:53:24.438Z,983.39
2019-05-06T07:54:24.478Z,983.43
2019-05-06T07:55:24.429Z,983.36
2019-05-06T07:56:24.518Z,983.40
2019-05-06T07:57:24.409Z,983.34
2019-05-06T07:58:24.379Z,983.35
2019-05-06T07:59:24.452Z,983.35
2019-05-06T08:00:24.371Z,983.31
2019-05-06T08:01:26.151Z,983.34
2019-05-06T08:02:24.353Z,983.36
2019-05-06T08:03:24.339Z,983.33
2019-05-06T08:04:24.364Z,983.38
2019-05-06T08:05:24.305Z,983.36
2019-05-06T08:06:24.394Z,983.29
2019-05-06T08:07:24.304Z,983.40
2019-05-06T08:08:24.262Z,983.33
2019-05-06T08:09:24.259Z,983.31
2019-05-06T08:10:24.367Z,983.31
2019-05-06T08:11:26.069Z,983.31
2019-05-06T08:12:24.853Z,983.32
2019-05-06T08:13:24.219Z,983.32
2019-05-06T08:14:24.199Z,983.28
2019-05-06T08:15:24.199Z,983.24
2019-05-06T08:16:24.280Z,983.26
2019-05-06T08:17:24.172Z,983.26
2019-05-06T08:18:24.251Z,983.26
2019-05-06T08:19:24.161Z,983.27
2019-05-06T08:20:25.171Z,983.24
2019-05-06T08:21:24.102Z,983.26
2019-05-06T08:22:24.173Z,983.30
2019-05-06T08:23:24.124Z,983.27
2019-05-06T08:24:25.144Z,983.30
2019-05-06T08:25:24.074Z,983.28
2019-05-06T08:26:25.175Z,983.32
2019-05-06T08:27:24.065Z,983.32
2019-05-06T08:28:37.430Z,983.25
2019-05-06T08:29:25.027Z,983.33
2019-05-06T08:30:24.079Z,983.29
2019-05-06T08:31:24.097Z,983.33
2019-05-06T08:32:23.997Z,983.37
2019-05-06T08:33:24.075Z,983.39
2019-05-06T08:34:23.969Z,983.39
2019-05-06T08:35:23.999Z,983.41
2019-05-06T08:36:23.980Z,983.40
2019-05-06T08:37:24.000Z,983.44
2019-05-06T08:38:23.941Z,983.48
2019-05-06T08:39:23.942Z,983.49
2019-05-06T08:40:26.477Z,983.48
2019-05-06T08:41:23.994Z,983.59
2019-05-06T08:42:23.894Z,983.54
2019-05-06T08:43:23.965Z,983.56
2019-05-06T08:44:23.864Z,983.56
2019-05-06T08:45:23.946Z,983.55
2019-05-06T08:46:23.841Z,983.55
2019-05-06T08:47:23.886Z,983.57
2019-05-06T08:48:23.836Z,983.52
2019-05-06T08:49:23.918Z,983.54
2019-05-06T08:50:23.789Z,983.53
2019-05-06T08:51:23.849Z,983.52
2019-05-06T08:52:23.768Z,983.52
2019-05-06T08:53:24.378Z,983.48
2019-05-06T08:54:23.759Z,983.53
2019-05-06T08:55:23.831Z,983.51
2019-05-06T08:56:23.720Z,983.49
2019-05-06T08:57:23.711Z,983.53
2019-05-06T08:58:23.715Z,983.51
2019-05-06T08:59:24.138Z,983.53
2019-05-06T09:00:23.674Z,983.52
2019-05-06T09:01:23.734Z,983.52
2019-05-06T09:02:23.657Z,983.47
2019-05-06T09:03:23.724Z,983.53
2019-05-06T09:04:23.635Z,983.49
2019-05-06T09:05:23.715Z,983.47
2019-05-06T09:06:29.947Z,983.47
2019-05-06T09:07:24.677Z,983.51
2019-05-06T09:08:23.608Z,983.50
2019-05-06T09:09:23.577Z,983.48
2019-05-06T09:10:23.729Z,983.50
2019-05-06T09:11:25.803Z,983.42
2019-05-06T09:12:23.679Z,983.46
2019-05-06T09:13:23.566Z,983.53
2019-05-06T09:14:23.917Z,983.51
2019-05-06T09:15:23.592Z,983.48
2019-05-06T09:16:23.511Z,983.49
2019-05-06T09:17:23.522Z,983.45
2019-05-06T09:18:24.109Z,983.44
2019-05-06T09:19:23.627Z,983.46
2019-05-06T09:20:23.558Z,983.45
2019-05-06T09:21:23.435Z,983.39
2019-05-06T09:22:23.666Z,983.47
2019-05-06T09:23:23.426Z,983.42
2019-05-06T09:24:23.416Z,983.41
2019-05-06T09:25:23.396Z,983.42
2019-05-06T09:26:24.467Z,983.40
2019-05-06T09:27:23.377Z,983.45
2019-05-06T09:28:24.401Z,983.36
2019-05-06T09:29:23.359Z,983.43
2019-05-06T09:30:23.350Z,983.40
2019-05-06T09:31:23.400Z,983.41
2019-05-06T09:32:23.362Z,983.40
2019-05-06T09:33:23.420Z,983.39
2019-05-06T09:34:23.516Z,983.39
2019-05-06T09:35:23.291Z,983.38
2019-05-06T09:36:23.274Z,983.37
2019-05-06T09:37:24.442Z,983.37
2019-05-06T09:38:23.254Z,983.37
2019-05-06T09:39:23.373Z,983.36
2019-05-06T09:40:23.224Z,983.37
2019-05-06T09:41:23.220Z,983.41
2019-05-06T09:42:23.399Z,983.38
2019-05-06T09:43:23.206Z,983.34
2019-05-06T09:44:23.306Z,983.36
2019-05-06T09:45:23.166Z,983.31
2019-05-06T09:46:23.223Z,983.30
2019-05-06T09:47:23.148Z,983.32
2019-05-06T09:48:23.229Z,983.30
2019-05-06T09:49:23.119Z,983.26
2019-05-06T09:50:23.240Z,983.27
2019-05-06T09:51:23.111Z,983.33
2019-05-06T09:52:23.400Z,983.28
2019-05-06T09:53:23.281Z,983.30
2019-05-06T09:54:23.724Z,983.32
2019-05-06T09:55:23.084Z,983.29
2019-05-06T09:56:23.145Z,983.34
2019-05-06T09:57:23.033Z,983.29
2019-05-06T09:58:24.044Z,983.32
2019-05-06T09:59:23.016Z,983.27
2019-05-06T10:00:23.697Z,983.29
2019-05-06T10:01:22.989Z,983.29
2019-05-06T10:02:23.246Z,983.34
2019-05-06T10:03:22.967Z,983.26
2019-05-06T10:04:23.017Z,983.32
2019-05-06T10:05:22.957Z,983.28
2019-05-06T10:06:22.968Z,983.23
2019-05-06T10:07:22.919Z,983.22
2019-05-06T10:08:22.904Z,983.26
2019-05-06T10:09:24.868Z,983.19
2019-05-06T10:10:22.910Z,983.19
2019-05-06T10:11:22.898Z,983.17
2019-05-06T10:12:22.861Z,983.19
2019-05-06T10:13:22.843Z,983.19
2019-05-06T10:14:23.396Z,983.19
2019-05-06T10:15:22.924Z,983.20
2019-05-06T10:16:22.813Z,983.19
2019-05-06T10:17:22.913Z,983.25
2019-05-06T10:18:22.795Z,983.22
2019-05-06T10:19:22.813Z,983.26
2019-05-06T10:20:23.875Z,983.24
2019-05-06T10:21:23.034Z,983.27
2019-05-06T10:22:23.337Z,983.25
2019-05-06T10:23:22.727Z,983.22
2019-05-06T10:24:22.721Z,983.24
2019-05-06T10:25:22.798Z,983.26
2019-05-06T10:26:23.444Z,983.20
2019-05-06T10:27:22.820Z,983.20
2019-05-06T10:28:23.375Z,983.22
2019-05-06T10:29:22.730Z,983.27
2019-05-06T10:30:22.682Z,983.22
2019-05-06T10:31:22.652Z,983.22
2019-05-06T10:32:22.634Z,983.26
2019-05-06T10:33:22.704Z,983.24
2019-05-06T10:34:22.614Z,983.24
2019-05-06T10:35:25.616Z,983.25
2019-05-06T10:36:23.585Z,983.21
2019-05-06T10:37:22.675Z,983.25
2019-05-06T10:38:22.880Z,983.24
2019-05-06T10:39:22.969Z,983.30
2019-05-06T10:40:22.810Z,983.28
2019-05-06T10:41:22.572Z,983.24
2019-05-06T10:42:23.096Z,983.24
2019-05-06T10:43:22.516Z,983.21
2019-05-06T10:44:22.790Z,983.22
2019-05-06T10:45:22.499Z,983.28
2019-05-06T10:46:22.676Z,983.29
2019-05-06T10:47:22.703Z,983.26
2019-05-06T10:48:22.682Z,983.29
2019-05-06T10:49:22.801Z,983.28
2019-05-06T10:50:22.969Z,983.26
2019-05-06T10:51:22.965Z,983.25
2019-05-06T10:52:22.403Z,983.27
2019-05-06T10:53:23.350Z,983.26
2019-05-06T10:54:22.934Z,983.26
2019-05-06T10:55:23.113Z,983.20
2019-05-06T10:56:23.048Z,983.26
2019-05-06T10:57:22.356Z,983.22
2019-05-06T10:58:23.433Z,983.27
2019-05-06T10:59:22.354Z,983.28
2019-05-06T11:00:23.117Z,983.26
2019-05-06T11:01:23.186Z,983.29
2019-05-06T11:02:23.247Z,983.27
2019-05-06T11:03:22.748Z,983.30
2019-05-06T11:04:22.602Z,983.29
2019-05-06T11:05:22.271Z,983.28
2019-05-06T11:06:22.271Z,983.33
2019-05-06T11:07:31.382Z,983.30
2019-05-06T11:08:23.226Z,983.32
2019-05-06T11:09:22.736Z,983.26
2019-05-06T11:10:27.932Z,983.23
2019-05-06T11:11:32.654Z,983.18
2019-05-06T11:12:23.174Z,983.19
2019-05-06T11:13:24.486Z,983.22
2019-05-06T11:14:22.909Z,983.18
2019-05-06T11:15:23.258Z,983.13
2019-05-06T11:16:23.733Z,983.15
2019-05-06T11:17:23.300Z,983.15
2019-05-06T11:18:23.429Z,983.12
2019-05-06T11:19:22.482Z,983.16
2019-05-06T11:20:24.181Z,983.10
2019-05-06T11:21:22.614Z,983.10
2019-05-06T11:22:24.644Z,983.08
2019-05-06T11:23:22.117Z,983.07
2019-05-06T11:24:23.185Z,983.14
2019-05-06T11:25:23.011Z,983.06
2019-05-06T11:26:23.698Z,983.07
2019-05-06T11:27:28.691Z,983.10
2019-05-06T11:28:23.002Z,983.07
2019-05-06T11:29:22.122Z,983.02
2019-05-06T11:30:24.674Z,983.00
2019-05-06T11:31:22.976Z,983.02
2019-05-06T11:32:23.798Z,983.02
2019-05-06T11:33:22.412Z,982.96
2019-05-06T11:34:22.250Z,982.95
2019-05-06T11:35:22.893Z,982.95
2019-05-06T11:36:22.983Z,982.93
2019-05-06T11:37:23.268Z,982.88
2019-05-06T11:38:22.793Z,982.95
2019-05-06T11:39:23.328Z,982.89
2019-05-06T11:40:23.458Z,982.96
2019-05-06T11:41:23.359Z,982.92
2019-05-06T11:42:28.925Z,982.94
2019-05-06T11:43:22.972Z,982.88
2019-05-06T11:44:23.844Z,982.97
2019-05-06T11:45:22.802Z,982.87
2019-05-06T11:46:22.888Z,982.85
2019-05-06T11:47:23.305Z,982.88
2019-05-06T11:48:22.459Z,982.91
2019-05-06T11:49:23.246Z,982.89
2019-05-06T11:50:22.049Z,982.79
2019-05-06T11:51:23.087Z,982.79
2019-05-06T11:52:22.611Z,982.83
2019-05-06T11:53:23.125Z,982.82
2019-05-06T11:54:24.371Z,982.81
2019-05-06T11:55:31.720Z,982.85
2019-05-06T11:56:23.121Z,982.86
2019-05-06T11:57:23.184Z,982.85
2019-05-06T11:58:22.386Z,982.86
2019-05-06T11:59:22.673Z,982.86
2019-05-06T12:00:23.790Z,982.83
2019-05-06T12:01:22.720Z,982.87
2019-05-06T12:02:21.674Z,982.87
2019-05-06T12:03:23.302Z,982.87
2019-05-06T12:04:22.782Z,982.83
2019-05-06T12:05:22.341Z,982.90
2019-05-06T12:06:22.676Z,982.89
2019-05-06T12:07:24.524Z,982.88
2019-05-06T12:08:22.208Z,982.86
2019-05-06T12:09:22.227Z,982.85
2019-05-06T12:10:22.472Z,982.85
2019-05-06T12:11:23.747Z,982.83
2019-05-06T12:12:23.332Z,982.86
2019-05-06T12:13:23.018Z,982.83
2019-05-06T12:14:22.636Z,982.84
2019-05-06T12:15:23.020Z,982.89
2019-05-06T12:16:26.149Z,982.83
2019-05-06T12:17:22.537Z,982.86
2019-05-06T12:18:23.052Z,982.85
2019-05-06T12:19:22.491Z,982.89
2019-05-06T12:20:22.184Z,982.85
2019-05-06T12:21:23.214Z,982.82
2019-05-06T12:22:22.198Z,982.82
2019-05-06T12:23:22.397Z,982.84
2019-05-06T12:24:22.895Z,982.85
2019-05-06T12:25:23.510Z,982.83
2019-05-06T12:26:21.384Z,982.84
2019-05-06T12:27:21.355Z,982.90
2019-05-06T12:28:21.476Z,982.90